createdAt,value
2022-08-19T00:01:34.009Z,7.80
2022-08-19T00:05:46.353Z,8.10
2022-08-19T00:09:13.915Z,8.70
2022-08-19T00:13:01.733Z,9.30
2022-08-19T00:17:09.944Z,9.80
2022-08-19T00:21:17.967Z,10.50
2022-08-19T00:25:30.530Z,12.60
2022-08-19T00:29:38.850Z,13.10
2022-08-19T00:33:46.528Z,12.60
2022-08-19T00:37:54.529Z,12.80
2022-08-19T00:42:02.548Z,12.10
2022-08-19T00:46:04.554Z,12.40
2022-08-19T00:50:21.350Z,12.40
2022-08-19T00:54:31.072Z,13.50
2022-08-19T00:58:48.043Z,11.20
2022-08-19T01:02:55.954Z,12.90
2022-08-19T01:06:57.461Z,12.50
2022-08-19T01:10:46.156Z,12.10
2022-08-19T01:14:54.212Z,10.60
2022-08-19T01:19:02.225Z,11.90
2022-08-19T01:22:49.198Z,11.40
2022-08-19T01:26:37.243Z,10.70
2022-08-19T01:30:51.078Z,10.40
2022-08-19T01:33:59.417Z,7.90
2022-08-19T01:36:37.596Z,11.60
2022-08-19T01:39:09.021Z,11.00
2022-08-19T01:41:36.474Z,12.40
2022-08-19T01:44:17.774Z,10.60
2022-08-19T01:46:49.295Z,11.00
2022-08-19T01:49:19.229Z,7.90
2022-08-19T01:51:46.925Z,11.00
2022-08-19T01:54:23.074Z,9.90
2022-08-19T01:57:00.347Z,11.30
2022-08-19T01:59:27.680Z,12.10
2022-08-19T02:01:54.585Z,11.40
2022-08-19T02:04:22.057Z,12.10
2022-08-19T02:06:49.186Z,11.10
2022-08-19T02:09:17.299Z,11.00
2022-08-19T02:11:44.317Z,10.80
2022-08-19T02:14:11.629Z,11.90
2022-08-19T02:16:41.600Z,11.80
2022-08-19T02:19:08.937Z,13.60
2022-08-19T02:21:38.938Z,12.30
2022-08-19T02:24:08.194Z,12.00
2022-08-19T02:26:35.177Z,12.30
2022-08-19T02:29:02.192Z,11.90
2022-08-19T02:31:29.263Z,12.00
2022-08-19T02:33:57.583Z,11.30
2022-08-19T02:36:26.385Z,12.30
2022-08-19T02:38:55.630Z,12.80
2022-08-19T02:41:29.304Z,12.60
2022-08-19T02:44:22.786Z,13.30
2022-08-19T02:46:52.212Z,13.10
2022-08-19T02:49:22.259Z,13.20
2022-08-19T02:51:56.400Z,12.70
2022-08-19T02:54:23.389Z,12.90
2022-08-19T02:56:50.582Z,13.00
2022-08-19T02:59:17.647Z,12.40
2022-08-19T03:01:50.876Z,13.50
2022-08-19T03:04:20.204Z,13.80
2022-08-19T03:06:48.646Z,12.10
2022-08-19T03:09:16.369Z,14.10
2022-08-19T03:11:43.843Z,15.30
2022-08-19T03:14:14.572Z,14.10
2022-08-19T03:16:45.004Z,15.00
2022-08-19T03:19:20.752Z,14.70
2022-08-19T03:21:47.967Z,12.10
2022-08-19T03:24:16.390Z,12.80
2022-08-19T03:26:46.026Z,12.40
2022-08-19T03:29:13.654Z,14.40
2022-08-19T03:31:52.040Z,13.40
2022-08-19T03:34:28.353Z,13.60
2022-08-19T03:36:57.241Z,13.00
2022-08-19T03:39:26.418Z,11.10
2022-08-19T03:42:31.915Z,11.90
2022-08-19T03:44:46.040Z,12.30
2022-08-19T03:47:17.447Z,11.90
2022-08-19T03:49:45.137Z,12.50
2022-08-19T03:52:12.674Z,12.20
2022-08-19T03:54:39.733Z,10.80
2022-08-19T03:57:08.653Z,10.80
2022-08-19T03:59:37.650Z,11.30
2022-08-19T04:02:10.367Z,12.10
2022-08-19T04:04:39.947Z,10.60
2022-08-19T04:07:09.503Z,10.90
2022-08-19T04:09:37.687Z,10.50
2022-08-19T04:12:06.490Z,10.80
2022-08-19T04:14:36.248Z,11.20
2022-08-19T04:17:06.106Z,11.00
2022-08-19T04:19:36.361Z,12.60
2022-08-19T04:22:05.248Z,12.80
2022-08-19T04:24:36.450Z,13.20
2022-08-19T04:27:06.602Z,13.60
2022-08-19T04:29:34.538Z,12.60
2022-08-19T04:32:08.400Z,14.60
2022-08-19T04:35:02.446Z,14.00
2022-08-19T04:37:35.450Z,13.90
2022-08-19T04:40:25.722Z,14.30
2022-08-19T04:42:55.499Z,17.00
2022-08-19T04:45:23.307Z,17.00
2022-08-19T04:47:58.470Z,18.60
2022-08-19T04:51:26.970Z,18.00
2022-08-19T04:54:37.778Z,16.50
2022-08-19T04:57:10.815Z,17.60
2022-08-19T04:59:39.779Z,20.40
2022-08-19T05:02:09.702Z,19.30
2022-08-19T05:04:40.200Z,16.10
2022-08-19T05:07:09.436Z,18.40
2022-08-19T05:09:57.730Z,19.70
2022-08-19T05:12:29.092Z,20.50
2022-08-19T05:14:59.128Z,16.80
2022-08-19T05:17:38.306Z,15.90
2022-08-19T05:20:27.643Z,13.80
2022-08-19T05:22:54.788Z,15.60
2022-08-19T05:25:22.633Z,15.50
2022-08-19T05:27:49.685Z,15.60
2022-08-19T05:30:18.588Z,18.20
2022-08-19T05:32:51.767Z,18.10
2022-08-19T05:35:21.510Z,19.40
2022-08-19T05:37:54.873Z,21.60
2022-08-19T05:40:25.833Z,18.80
2022-08-19T05:42:55.404Z,17.80
2022-08-19T05:45:22.827Z,19.80
2022-08-19T05:48:03.741Z,18.30
2022-08-19T05:51:03.789Z,20.90
2022-08-19T05:54:06.751Z,21.80
2022-08-19T05:56:39.854Z,20.80
2022-08-19T05:59:17.175Z,19.00
2022-08-19T06:01:55.411Z,18.70
2022-08-19T06:04:30.152Z,18.10
2022-08-19T06:07:00.295Z,18.60
2022-08-19T06:09:43.777Z,19.60
2022-08-19T06:12:33.983Z,19.30
2022-08-19T06:15:09.051Z,21.10
2022-08-19T06:17:37.155Z,20.80
2022-08-19T06:20:10.988Z,17.90
2022-08-19T06:22:43.120Z,16.60
2022-08-19T06:25:11.400Z,18.40
2022-08-19T06:27:45.045Z,18.30
2022-08-19T06:30:20.517Z,19.50
2022-08-19T06:32:47.290Z,19.90
2022-08-19T06:35:15.514Z,20.90
2022-08-19T06:37:44.008Z,21.70
2022-08-19T06:40:13.519Z,21.60
2022-08-19T06:42:40.416Z,20.00
2022-08-19T06:45:21.553Z,20.20
2022-08-19T06:47:55.168Z,15.50
2022-08-19T06:50:22.923Z,20.60
2022-08-19T06:52:52.451Z,19.10
2022-08-19T06:55:20.703Z,21.70
2022-08-19T06:57:49.301Z,18.90
2022-08-19T07:00:16.947Z,18.50
2022-08-19T07:02:49.571Z,18.10
2022-08-19T07:05:20.367Z,17.80
2022-08-19T07:07:47.571Z,18.80
2022-08-19T07:10:14.787Z,16.50
2022-08-19T07:12:42.189Z,17.90
2022-08-19T07:15:10.886Z,15.50
2022-08-19T07:17:39.671Z,13.70
2022-08-19T07:20:09.696Z,11.10
2022-08-19T07:22:41.679Z,11.30
2022-08-19T07:25:10.303Z,10.40
2022-08-19T07:27:38.149Z,10.00
2022-08-19T07:30:11.659Z,11.10
2022-08-19T07:32:40.313Z,10.70
2022-08-19T07:35:08.903Z,9.50
2022-08-19T07:37:38.129Z,9.40
2022-08-19T07:40:07.973Z,8.40
2022-08-19T07:42:34.830Z,9.40
2022-08-19T07:45:01.563Z,9.70
2022-08-19T07:47:49.714Z,9.20
2022-08-19T07:50:19.504Z,10.60
2022-08-19T07:52:49.036Z,9.60
2022-08-19T07:55:42.550Z,7.50
2022-08-19T07:58:07.103Z,7.20
2022-08-19T08:00:34.704Z,7.40
2022-08-19T08:03:01.573Z,6.60
2022-08-19T08:05:47.173Z,6.80
2022-08-19T08:08:44.059Z,6.50
2022-08-19T08:11:20.974Z,6.10
2022-08-19T08:16:47.098Z,5.90
2022-08-19T08:21:53.106Z,6.10
2022-08-19T08:24:21.221Z,6.80
2022-08-19T08:26:52.039Z,5.30
2022-08-19T08:29:20.653Z,5.80
2022-08-19T08:31:48.767Z,6.00
2022-08-19T08:34:25.777Z,7.00
2022-08-19T08:36:53.211Z,7.20
2022-08-19T08:39:22.362Z,7.40
2022-08-19T08:42:17.501Z,7.00
2022-08-19T08:47:36.301Z,7.40
2022-08-19T08:50:31.826Z,7.60
2022-08-19T08:52:59.733Z,9.40
2022-08-19T08:55:36.648Z,8.10
2022-08-19T08:58:14.913Z,10.70
2022-08-19T09:00:46.983Z,10.00
2022-08-19T09:03:25.392Z,10.00
2022-08-19T09:06:12.099Z,9.10
2022-08-19T09:08:45.173Z,7.20
2022-08-19T09:11:42.832Z,8.10
2022-08-19T09:14:47.469Z,10.80
2022-08-19T09:17:10.037Z,10.00
2022-08-19T09:20:03.424Z,10.50
2022-08-19T09:22:30.525Z,9.60
2022-08-19T09:24:57.952Z,9.90
2022-08-19T09:27:41.878Z,10.30
2022-08-19T09:30:18.203Z,9.60
2022-08-19T09:32:46.512Z,9.40
2022-08-19T09:35:15.219Z,8.30
2022-08-19T09:37:44.483Z,7.30
2022-08-19T09:40:13.248Z,7.90
2022-08-19T09:42:50.265Z,8.80
2022-08-19T09:45:23.134Z,8.00
2022-08-19T09:47:54.829Z,8.40
2022-08-19T09:50:25.021Z,8.00
2022-08-19T09:52:57.402Z,8.00
2022-08-19T09:55:31.066Z,8.80
2022-08-19T09:58:01.234Z,9.50
2022-08-19T10:00:28.406Z,6.40
2022-08-19T10:02:55.148Z,8.20
2022-08-19T10:05:42.356Z,8.30
2022-08-19T10:08:13.233Z,9.80
2022-08-19T10:10:46.239Z,9.20
2022-08-19T10:13:18.492Z,10.30
2022-08-19T10:15:48.157Z,8.70
2022-08-19T10:18:19.285Z,9.30
2022-08-19T10:21:05.808Z,9.10
2022-08-19T10:23:58.456Z,10.50
2022-08-19T10:26:38.553Z,11.50
2022-08-19T10:29:09.523Z,10.70
2022-08-19T10:32:01.253Z,10.00
2022-08-19T10:34:27.833Z,10.10
2022-08-19T10:37:00.894Z,9.90
2022-08-19T10:39:31.322Z,11.00
2022-08-19T10:41:59.188Z,11.40
2022-08-19T10:44:32.132Z,10.80
2022-08-19T10:47:01.048Z,11.60
2022-08-19T10:49:28.153Z,10.90
2022-08-19T10:52:19.068Z,11.70
2022-08-19T10:55:08.439Z,12.50
2022-08-19T10:57:59.229Z,10.60
2022-08-19T11:00:24.471Z,11.80
2022-08-19T11:02:52.566Z,11.30
2022-08-19T11:05:20.459Z,10.60
2022-08-19T11:07:52.963Z,11.30
2022-08-19T11:10:22.440Z,11.60
2022-08-19T11:12:49.768Z,12.00
2022-08-19T11:15:17.124Z,11.80
2022-08-19T11:17:44.860Z,10.50
2022-08-19T11:20:16.828Z,10.60
2022-08-19T11:22:43.958Z,11.00
2022-08-19T11:25:12.132Z,11.20
2022-08-19T11:27:43.578Z,10.50
2022-08-19T11:30:13.216Z,10.10
2022-08-19T11:32:47.316Z,10.20
2022-08-19T11:35:17.477Z,9.70
2022-08-19T11:37:44.472Z,9.70
2022-08-19T11:40:12.258Z,10.70
2022-08-19T11:42:57.893Z,9.80
2022-08-19T11:45:26.508Z,10.30
2022-08-19T11:47:54.181Z,10.60
2022-08-19T11:50:21.769Z,8.60
2022-08-19T11:52:50.632Z,7.50
2022-08-19T11:55:17.658Z,9.40
2022-08-19T11:57:44.795Z,7.40
2022-08-19T12:00:15.021Z,9.50
2022-08-19T12:02:41.936Z,8.90
2022-08-19T12:05:12.520Z,9.10
2022-08-19T12:07:41.795Z,8.20
2022-08-19T12:10:10.618Z,8.30
2022-08-19T12:12:43.375Z,9.70
2022-08-19T12:15:13.080Z,9.00
2022-08-19T12:17:39.930Z,9.90
2022-08-19T12:20:10.154Z,9.30
2022-08-19T12:22:43.877Z,8.60
2022-08-19T12:25:12.610Z,9.20
2022-08-19T12:27:46.836Z,9.00
2022-08-19T12:30:17.046Z,8.50
2022-08-19T12:32:44.326Z,8.50
2022-08-19T12:35:14.342Z,8.50
2022-08-19T12:37:43.324Z,8.70
2022-08-19T12:40:12.859Z,8.40
2022-08-19T12:42:43.187Z,8.10
2022-08-19T12:45:12.233Z,7.30
2022-08-19T12:47:40.837Z,8.50
2022-08-19T12:50:10.578Z,8.00
2022-08-19T12:53:00.634Z,8.00
2022-08-19T12:55:31.308Z,8.40
2022-08-19T12:58:39.157Z,7.00
2022-08-19T13:01:33.518Z,7.90
2022-08-19T13:04:06.455Z,7.70
2022-08-19T13:06:38.761Z,8.40
2022-08-19T13:09:25.938Z,8.20
2022-08-19T13:11:52.845Z,7.50
2022-08-19T13:14:22.766Z,7.70
2022-08-19T13:16:49.970Z,8.20
2022-08-19T13:19:24.512Z,8.80
2022-08-19T13:21:52.082Z,7.90
2022-08-19T13:24:27.650Z,8.10
2022-08-19T13:27:04.350Z,7.80
2022-08-19T13:29:50.050Z,8.90
2022-08-19T13:32:35.596Z,8.50
2022-08-19T13:35:04.141Z,9.10
2022-08-19T13:38:21.729Z,8.20
2022-08-19T13:41:29.661Z,8.10
2022-08-19T13:43:56.429Z,7.40
2022-08-19T13:46:26.318Z,9.10
2022-08-19T13:48:53.405Z,8.00
2022-08-19T13:51:20.616Z,7.20
2022-08-19T13:53:48.140Z,6.60
2022-08-19T13:56:20.176Z,8.10
2022-08-19T13:58:52.299Z,7.50
2022-08-19T14:01:24.609Z,8.00
2022-08-19T14:03:55.101Z,8.20
2022-08-19T14:06:23.382Z,8.10
2022-08-19T14:08:51.069Z,8.60
2022-08-19T14:11:18.416Z,8.20
2022-08-19T14:13:45.887Z,8.00
2022-08-19T14:16:14.637Z,8.10
2022-08-19T14:18:42.437Z,7.40
2022-08-19T14:21:16.668Z,8.50
2022-08-19T14:23:43.920Z,8.30
2022-08-19T14:26:33.778Z,7.70
2022-08-19T14:29:34.877Z,9.50
2022-08-19T14:32:01.614Z,10.00
2022-08-19T14:34:28.547Z,10.70
2022-08-19T14:36:55.513Z,10.40
2022-08-19T14:39:22.458Z,10.10
2022-08-19T14:41:49.233Z,9.30
2022-08-19T14:44:16.044Z,9.30
2022-08-19T14:46:48.545Z,9.30
2022-08-19T14:49:17.678Z,8.90
2022-08-19T14:51:46.620Z,9.30
2022-08-19T14:54:14.478Z,10.30
2022-08-19T14:56:42.418Z,10.20
2022-08-19T14:59:09.434Z,10.60
2022-08-19T15:01:36.555Z,9.80
2022-08-19T15:04:03.657Z,9.80
2022-08-19T15:06:30.552Z,10.50
2022-08-19T15:09:01.943Z,8.60
2022-08-19T15:11:33.291Z,8.80
2022-08-19T15:14:01.035Z,9.20
2022-08-19T15:17:09.053Z,8.70
2022-08-19T15:19:37.166Z,9.10
2022-08-19T15:22:18.816Z,9.60
2022-08-19T15:25:39.124Z,8.30
2022-08-19T15:28:06.753Z,8.20
2022-08-19T15:30:34.670Z,7.80
2022-08-19T15:33:02.544Z,7.70
2022-08-19T15:35:29.826Z,7.40
2022-08-19T15:37:57.277Z,8.10
2022-08-19T15:40:28.266Z,8.10
2022-08-19T15:43:17.285Z,7.20
2022-08-19T15:45:50.373Z,7.10
2022-08-19T15:48:17.276Z,7.50
2022-08-19T15:50:47.044Z,7.60
2022-08-19T15:53:13.964Z,8.00
2022-08-19T15:55:46.012Z,8.00
2022-08-19T15:58:33.749Z,7.50
2022-08-19T16:01:29.272Z,6.70
2022-08-19T16:04:20.492Z,7.40
2022-08-19T16:06:50.816Z,7.90
2022-08-19T16:09:26.486Z,7.50
2022-08-19T16:12:02.629Z,6.60
2022-08-19T16:14:32.768Z,7.90
2022-08-19T16:16:59.701Z,7.10
2022-08-19T16:19:27.451Z,7.10
2022-08-19T16:21:56.846Z,6.70
2022-08-19T16:24:27.097Z,7.10
2022-08-19T16:26:54.972Z,5.90
2022-08-19T16:29:30.244Z,6.60
2022-08-19T16:32:05.654Z,6.10
2022-08-19T16:34:33.829Z,6.00
2022-08-19T16:37:01.072Z,6.30
2022-08-19T16:39:28.092Z,5.40
2022-08-19T16:41:55.331Z,7.00
2022-08-19T16:44:22.599Z,5.70
2022-08-19T16:47:02.265Z,5.80
2022-08-19T16:49:53.589Z,5.50
2022-08-19T16:52:19.930Z,5.90
2022-08-19T16:54:48.093Z,5.80
2022-08-19T16:57:18.490Z,5.90
2022-08-19T16:59:49.561Z,6.40
2022-08-19T17:02:19.143Z,5.80
2022-08-19T17:04:58.231Z,5.20
2022-08-19T17:07:33.046Z,6.80
2022-08-19T17:10:02.519Z,6.10
2022-08-19T17:12:32.383Z,6.80
2022-08-19T17:15:01.478Z,6.40
2022-08-19T17:17:30.271Z,7.60
2022-08-19T17:20:02.767Z,7.40
2022-08-19T17:22:30.013Z,7.00
2022-08-19T17:24:58.259Z,6.00
2022-08-19T17:27:31.332Z,5.70
2022-08-19T17:30:04.191Z,6.10
2022-08-19T17:32:34.987Z,6.70
2022-08-19T17:35:05.164Z,7.00
2022-08-19T17:37:33.569Z,7.10
2022-08-19T17:40:02.745Z,7.60
2022-08-19T17:42:30.146Z,6.20
2022-08-19T17:44:59.214Z,7.00
2022-08-19T17:47:28.229Z,7.00
2022-08-19T17:49:56.808Z,7.20
2022-08-19T17:52:27.424Z,7.90
2022-08-19T17:54:54.896Z,6.90
2022-08-19T18:01:47.277Z,6.10
2022-08-19T18:04:19.774Z,6.70
2022-08-19T18:06:52.973Z,6.80
2022-08-19T18:09:30.054Z,7.60
2022-08-19T18:12:11.641Z,7.20
2022-08-19T18:14:40.063Z,7.70
2022-08-19T18:17:13.218Z,7.50
2022-08-19T18:19:43.275Z,7.40
2022-08-19T18:22:42.207Z,7.60
2022-08-19T18:25:24.148Z,7.30
2022-08-19T18:27:55.733Z,7.90
2022-08-19T18:30:24.000Z,8.00
2022-08-19T18:32:53.301Z,8.20
2022-08-19T18:35:29.766Z,8.00
2022-08-19T18:37:59.453Z,8.00
2022-08-19T18:40:48.057Z,8.50
2022-08-19T18:43:23.858Z,8.10
2022-08-19T18:46:10.203Z,7.70
2022-08-19T18:48:58.397Z,7.90
2022-08-19T18:51:29.985Z,8.70
2022-08-19T18:53:59.829Z,9.10
2022-08-19T18:56:32.264Z,8.60
2022-08-19T18:59:04.297Z,8.80
2022-08-19T19:01:37.679Z,8.90
2022-08-19T19:04:11.776Z,8.90
2022-08-19T19:06:42.661Z,9.40
2022-08-19T19:09:12.732Z,9.40
2022-08-19T19:11:44.315Z,8.50
2022-08-19T19:14:27.685Z,9.30
2022-08-19T19:17:03.909Z,9.30
2022-08-19T19:19:32.564Z,9.90
2022-08-19T19:22:02.804Z,9.20
2022-08-19T19:24:32.795Z,8.40
2022-08-19T19:27:06.405Z,8.10
2022-08-19T19:29:35.714Z,8.70
2022-08-19T19:32:05.022Z,9.10
2022-08-19T19:34:33.441Z,9.40
2022-08-19T19:37:00.642Z,9.50
2022-08-19T19:39:30.533Z,9.90
2022-08-19T19:42:19.717Z,9.20
2022-08-19T19:44:54.726Z,9.70
2022-08-19T19:47:24.362Z,91.10
2022-08-19T19:50:13.269Z,106.30
2022-08-19T19:52:45.686Z,99.10
2022-08-19T19:55:17.746Z,33.40
2022-08-19T19:57:48.943Z,16.50
2022-08-19T20:00:19.414Z,12.10
2022-08-19T20:02:51.825Z,10.40
2022-08-19T20:05:39.321Z,9.20
2022-08-19T20:08:25.239Z,8.60
2022-08-19T20:10:52.463Z,9.00
2022-08-19T20:13:19.411Z,9.40
2022-08-19T20:15:46.735Z,10.40
2022-08-19T20:18:16.578Z,11.00
2022-08-19T20:20:45.066Z,10.40
2022-08-19T20:23:12.127Z,11.10
2022-08-19T20:25:39.798Z,11.30
2022-08-19T20:28:06.664Z,11.70
2022-08-19T20:30:34.034Z,12.00
2022-08-19T20:33:02.103Z,10.60
2022-08-19T20:35:29.479Z,11.30
2022-08-19T20:37:59.764Z,11.80
2022-08-19T20:40:28.368Z,11.20
2022-08-19T20:42:56.705Z,10.90
2022-08-19T20:45:32.482Z,11.30
2022-08-19T20:48:20.108Z,10.20
2022-08-19T20:50:48.439Z,10.60
2022-08-19T20:53:19.924Z,12.50
2022-08-19T20:55:51.357Z,12.90
2022-08-19T20:58:21.186Z,14.30
2022-08-19T21:00:49.544Z,13.40
2022-08-19T21:03:19.727Z,15.10
2022-08-19T21:05:46.904Z,14.60
2022-08-19T21:08:19.542Z,15.30
2022-08-19T21:10:54.341Z,15.50
2022-08-19T21:13:22.982Z,15.90
2022-08-19T21:15:53.645Z,15.50
2022-08-19T21:18:23.274Z,14.70
2022-08-19T21:20:55.170Z,14.30
2022-08-19T21:23:28.188Z,13.30
2022-08-19T21:25:57.136Z,11.60
2022-08-19T21:28:35.891Z,12.60
2022-08-19T21:31:06.275Z,12.40
2022-08-19T21:33:33.550Z,12.60
2022-08-19T21:36:00.862Z,11.90
2022-08-19T21:38:28.023Z,12.60
2022-08-19T21:40:55.995Z,12.70
2022-08-19T21:43:23.840Z,12.30
2022-08-19T21:45:51.033Z,12.60
2022-08-19T21:48:18.752Z,12.60
2022-08-19T21:50:48.509Z,12.70
2022-08-19T21:53:17.683Z,12.80
2022-08-19T21:55:46.629Z,11.90
2022-08-19T22:00:55.826Z,10.20
2022-08-19T22:03:25.970Z,11.00
2022-08-19T22:05:53.716Z,9.30
2022-08-19T22:08:44.582Z,10.10
2022-08-19T22:11:17.290Z,10.90
2022-08-19T22:13:46.458Z,11.60
2022-08-19T22:16:14.301Z,10.90
2022-08-19T22:18:41.460Z,10.90
2022-08-19T22:21:11.933Z,10.20
2022-08-19T22:23:41.811Z,10.90
2022-08-19T22:26:09.310Z,11.50
2022-08-19T22:28:39.704Z,12.50
2022-08-19T22:31:11.646Z,12.10
2022-08-19T22:33:39.851Z,10.90
2022-08-19T22:36:07.795Z,11.40
2022-08-19T22:38:36.526Z,10.70
2022-08-19T22:41:07.786Z,10.70
2022-08-19T22:43:36.941Z,9.90
2022-08-19T22:46:06.471Z,10.50
2022-08-19T22:48:45.699Z,10.30
2022-08-19T22:51:32.773Z,10.80
2022-08-19T22:54:01.094Z,10.40
2022-08-19T22:56:30.321Z,10.60
2022-08-19T22:58:57.224Z,10.70
2022-08-19T23:01:29.967Z,10.40
2022-08-19T23:03:59.584Z,9.50
2022-08-19T23:06:33.083Z,10.30
2022-08-19T23:09:00.753Z,9.70
2022-08-19T23:11:29.408Z,9.60
2022-08-19T23:13:58.909Z,8.80
2022-08-19T23:16:28.834Z,9.70
2022-08-19T23:18:58.464Z,8.30
2022-08-19T23:21:30.915Z,9.60
2022-08-19T23:23:57.987Z,10.20
2022-08-19T23:26:27.606Z,9.20
2022-08-19T23:29:13.146Z,9.60
2022-08-19T23:34:07.252Z,9.30
2022-08-19T23:36:34.764Z,8.70
2022-08-19T23:39:01.630Z,9.10
2022-08-19T23:41:28.575Z,7.80
2022-08-19T23:43:56.070Z,7.20
2022-08-19T23:46:28.003Z,6.90
2022-08-19T23:49:00.149Z,6.10
2022-08-19T23:51:27.008Z,6.00
2022-08-19T23:53:54.611Z,6.40
2022-08-19T23:56:22.011Z,5.20
2022-08-19T23:58:49.293Z,5.50
